sensor_id;sensor_type;location;lat;lon;timestamp;P1;durP1;ratioP1;P2;durP2;ratioP2
70301;SDS011;57706;56.326;43.882;2023-03-23T00:02:13;12.27;;;7.25;;
70301;SDS011;57706;56.326;43.882;2023-03-23T00:04:39;13.05;;;7.35;;
70301;SDS011;57706;56.326;43.882;2023-03-23T00:07:04;14.85;;;7.25;;
70301;SDS011;57706;56.326;43.882;2023-03-23T00:09:30;13.25;;;7.05;;
70301;SDS011;57706;56.326;43.882;2023-03-23T00:11:59;12.02;;;6.85;;
70301;SDS011;57706;56.326;43.882;2023-03-23T00:14:33;12.40;;;6.90;;
70301;SDS011;57706;56.326;43.882;2023-03-23T00:17:07;13.88;;;6.53;;
70301;SDS011;57706;56.326;43.882;2023-03-23T00:19:36;11.20;;;6.18;;
70301;SDS011;57706;56.326;43.882;2023-03-23T00:22:14;13.15;;;7.15;;
70301;SDS011;57706;56.326;43.882;2023-03-23T00:24:42;13.55;;;6.93;;
70301;SDS011;57706;56.326;43.882;2023-03-23T00:27:09;13.75;;;7.22;;
70301;SDS011;57706;56.326;43.882;2023-03-23T00:29:38;11.98;;;6.88;;
70301;SDS011;57706;56.326;43.882;2023-03-23T00:32:05;14.32;;;7.45;;
70301;SDS011;57706;56.326;43.882;2023-03-23T00:34:31;15.48;;;6.95;;
70301;SDS011;57706;56.326;43.882;2023-03-23T00:36:59;12.85;;;7.03;;
70301;SDS011;57706;56.326;43.882;2023-03-23T00:39:25;13.60;;;6.82;;
70301;SDS011;57706;56.326;43.882;2023-03-23T00:41:53;13.35;;;6.75;;
70301;SDS011;57706;56.326;43.882;2023-03-23T00:44:26;16.00;;;6.47;;
70301;SDS011;57706;56.326;43.882;2023-03-23T00:46:53;12.80;;;6.93;;
70301;SDS011;57706;56.326;43.882;2023-03-23T00:49:22;12.00;;;6.85;;
70301;SDS011;57706;56.326;43.882;2023-03-23T00:51:53;10.98;;;6.22;;
70301;SDS011;57706;56.326;43.882;2023-03-23T00:54:20;9.70;;;5.75;;
70301;SDS011;57706;56.326;43.882;2023-03-23T00:56:49;9.55;;;5.45;;
70301;SDS011;57706;56.326;43.882;2023-03-23T00:59:15;10.40;;;4.75;;
70301;SDS011;57706;56.326;43.882;2023-03-23T01:01:43;10.70;;;5.50;;
70301;SDS011;57706;56.326;43.882;2023-03-23T01:04:09;10.82;;;6.10;;
70301;SDS011;57706;56.326;43.882;2023-03-23T01:06:38;8.25;;;4.20;;
70301;SDS011;57706;56.326;43.882;2023-03-23T01:09:15;9.82;;;5.68;;
70301;SDS011;57706;56.326;43.882;2023-03-23T01:11:42;9.45;;;5.22;;
70301;SDS011;57706;56.326;43.882;2023-03-23T01:14:10;10.45;;;5.53;;
70301;SDS011;57706;56.326;43.882;2023-03-23T01:16:37;9.15;;;5.05;;
70301;SDS011;57706;56.326;43.882;2023-03-23T01:19:03;10.63;;;5.70;;
70301;SDS011;57706;56.326;43.882;2023-03-23T01:21:28;8.32;;;4.90;;
70301;SDS011;57706;56.326;43.882;2023-03-23T01:23:55;7.70;;;4.88;;
70301;SDS011;57706;56.326;43.882;2023-03-23T01:26:22;10.20;;;4.97;;
70301;SDS011;57706;56.326;43.882;2023-03-23T01:28:51;8.88;;;4.90;;
70301;SDS011;57706;56.326;43.882;2023-03-23T01:31:22;9.48;;;5.00;;
70301;SDS011;57706;56.326;43.882;2023-03-23T01:33:50;10.15;;;4.93;;
70301;SDS011;57706;56.326;43.882;2023-03-23T01:36:18;9.25;;;4.95;;
70301;SDS011;57706;56.326;43.882;2023-03-23T01:38:47;9.95;;;5.57;;
70301;SDS011;57706;56.326;43.882;2023-03-23T01:41:14;7.63;;;4.85;;
70301;SDS011;57706;56.326;43.882;2023-03-23T01:46:53;10.13;;;5.45;;
70301;SDS011;57706;56.326;43.882;2023-03-23T01:49:21;8.60;;;4.85;;
70301;SDS011;57706;56.326;43.882;2023-03-23T01:52:10;9.90;;;4.65;;
70301;SDS011;57706;56.326;43.882;2023-03-23T01:54:43;8.43;;;4.47;;
70301;SDS011;57706;56.326;43.882;2023-03-23T01:57:12;9.52;;;5.35;;
70301;SDS011;57706;56.326;43.882;2023-03-23T01:59:42;10.27;;;4.35;;
70301;SDS011;57706;56.326;43.882;2023-03-23T02:04:47;6.65;;;3.85;;
70301;SDS011;57706;56.326;43.882;2023-03-23T02:07:14;9.02;;;4.10;;
70301;SDS011;57706;56.326;43.882;2023-03-23T02:09:42;9.23;;;4.63;;
70301;SDS011;57706;56.326;43.882;2023-03-23T02:12:08;7.55;;;4.63;;
70301;SDS011;57706;56.326;43.882;2023-03-23T02:14:36;9.52;;;4.70;;
70301;SDS011;57706;56.326;43.882;2023-03-23T02:17:25;8.30;;;5.00;;
70301;SDS011;57706;56.326;43.882;2023-03-23T02:33:35;7.22;;;4.40;;
70301;SDS011;57706;56.326;43.882;2023-03-23T02:36:18;11.15;;;4.53;;
70301;SDS011;57706;56.326;43.882;2023-03-23T02:39:01;8.82;;;4.53;;
70301;SDS011;57706;56.326;43.882;2023-03-23T02:41:45;7.70;;;4.25;;
70301;SDS011;57706;56.326;43.882;2023-03-23T02:44:16;6.63;;;3.60;;
70301;SDS011;57706;56.326;43.882;2023-03-23T02:46:43;7.90;;;4.00;;
70301;SDS011;57706;56.326;43.882;2023-03-23T02:49:11;8.05;;;3.45;;
70301;SDS011;57706;56.326;43.882;2023-03-23T02:51:40;8.52;;;4.30;;
70301;SDS011;57706;56.326;43.882;2023-03-23T02:54:09;10.48;;;4.40;;
70301;SDS011;57706;56.326;43.882;2023-03-23T02:56:37;7.60;;;3.92;;
70301;SDS011;57706;56.326;43.882;2023-03-23T02:59:11;6.97;;;3.75;;
70301;SDS011;57706;56.326;43.882;2023-03-23T03:04:13;8.52;;;4.55;;
70301;SDS011;57706;56.326;43.882;2023-03-23T03:09:15;11.50;;;5.53;;
70301;SDS011;57706;56.326;43.882;2023-03-23T03:11:51;9.50;;;5.00;;
70301;SDS011;57706;56.326;43.882;2023-03-23T03:14:26;7.47;;;4.45;;
70301;SDS011;57706;56.326;43.882;2023-03-23T03:17:03;10.43;;;5.07;;
70301;SDS011;57706;56.326;43.882;2023-03-23T03:19:48;11.55;;;5.28;;
70301;SDS011;57706;56.326;43.882;2023-03-23T03:22:16;8.98;;;4.70;;
70301;SDS011;57706;56.326;43.882;2023-03-23T03:24:46;8.60;;;4.63;;
70301;SDS011;57706;56.326;43.882;2023-03-23T03:27:16;7.20;;;3.80;;
70301;SDS011;57706;56.326;43.882;2023-03-23T03:29:47;6.95;;;3.85;;
70301;SDS011;57706;56.326;43.882;2023-03-23T03:32:22;6.45;;;3.63;;
70301;SDS011;57706;56.326;43.882;2023-03-23T03:34:58;7.18;;;3.90;;
70301;SDS011;57706;56.326;43.882;2023-03-23T03:37:26;6.35;;;3.83;;
70301;SDS011;57706;56.326;43.882;2023-03-23T03:39:52;6.63;;;4.20;;
70301;SDS011;57706;56.326;43.882;2023-03-23T03:42:18;11.32;;;4.32;;
70301;SDS011;57706;56.326;43.882;2023-03-23T03:44:44;6.63;;;3.60;;
70301;SDS011;57706;56.326;43.882;2023-03-23T03:47:10;7.47;;;3.80;;
70301;SDS011;57706;56.326;43.882;2023-03-23T03:49:36;7.57;;;4.07;;
70301;SDS011;57706;56.326;43.882;2023-03-23T03:52:02;7.68;;;4.05;;
70301;SDS011;57706;56.326;43.882;2023-03-23T03:54:40;10.68;;;3.83;;
70301;SDS011;57706;56.326;43.882;2023-03-23T03:57:06;8.25;;;4.10;;
70301;SDS011;57706;56.326;43.882;2023-03-23T04:00:03;8.07;;;4.68;;
70301;SDS011;57706;56.326;43.882;2023-03-23T04:02:45;8.25;;;4.10;;
70301;SDS011;57706;56.326;43.882;2023-03-23T04:05:17;8.30;;;4.15;;
70301;SDS011;57706;56.326;43.882;2023-03-23T04:07:47;7.15;;;4.07;;
70301;SDS011;57706;56.326;43.882;2023-03-23T04:10:17;9.65;;;4.40;;
70301;SDS011;57706;56.326;43.882;2023-03-23T04:12:48;8.90;;;4.13;;
70301;SDS011;57706;56.326;43.882;2023-03-23T04:15:45;6.45;;;3.72;;
70301;SDS011;57706;56.326;43.882;2023-03-23T04:18:12;8.45;;;4.45;;
70301;SDS011;57706;56.326;43.882;2023-03-23T04:20:41;7.00;;;4.25;;
70301;SDS011;57706;56.326;43.882;2023-03-23T04:23:14;7.40;;;3.78;;
70301;SDS011;57706;56.326;43.882;2023-03-23T04:25:46;8.25;;;4.50;;
70301;SDS011;57706;56.326;43.882;2023-03-23T04:28:13;9.10;;;4.55;;
70301;SDS011;57706;56.326;43.882;2023-03-23T04:30:53;6.97;;;3.70;;
70301;SDS011;57706;56.326;43.882;2023-03-23T04:33:20;8.13;;;4.07;;
70301;SDS011;57706;56.326;43.882;2023-03-23T04:35:48;6.00;;;3.90;;
70301;SDS011;57706;56.326;43.882;2023-03-23T04:38:32;10.23;;;4.43;;
70301;SDS011;57706;56.326;43.882;2023-03-23T04:41:07;8.38;;;5.10;;
70301;SDS011;57706;56.326;43.882;2023-03-23T04:43:53;7.93;;;4.22;;
70301;SDS011;57706;56.326;43.882;2023-03-23T04:46:26;9.13;;;4.85;;
70301;SDS011;57706;56.326;43.882;2023-03-23T04:48:57;7.38;;;4.20;;
70301;SDS011;57706;56.326;43.882;2023-03-23T04:51:30;8.15;;;4.40;;
70301;SDS011;57706;56.326;43.882;2023-03-23T04:54:06;8.00;;;4.43;;
70301;SDS011;57706;56.326;43.882;2023-03-23T04:56:32;8.98;;;5.03;;
70301;SDS011;57706;56.326;43.882;2023-03-23T04:59:04;22.23;;;12.07;;
70301;SDS011;57706;56.326;43.882;2023-03-23T05:01:45;10.10;;;5.07;;
70301;SDS011;57706;56.326;43.882;2023-03-23T05:04:19;9.88;;;4.43;;
70301;SDS011;57706;56.326;43.882;2023-03-23T05:06:56;8.02;;;3.70;;
70301;SDS011;57706;56.326;43.882;2023-03-23T05:09:26;5.97;;;3.72;;
70301;SDS011;57706;56.326;43.882;2023-03-23T05:11:52;5.38;;;3.30;;
70301;SDS011;57706;56.326;43.882;2023-03-23T05:14:18;6.63;;;3.78;;
70301;SDS011;57706;56.326;43.882;2023-03-23T05:16:51;7.55;;;3.58;;
70301;SDS011;57706;56.326;43.882;2023-03-23T05:19:18;11.38;;;3.97;;
70301;SDS011;57706;56.326;43.882;2023-03-23T05:21:45;7.68;;;3.85;;
70301;SDS011;57706;56.326;43.882;2023-03-23T05:24:11;5.90;;;3.92;;
70301;SDS011;57706;56.326;43.882;2023-03-23T05:26:37;5.28;;;3.67;;
70301;SDS011;57706;56.326;43.882;2023-03-23T05:29:11;6.30;;;3.08;;
70301;SDS011;57706;56.326;43.882;2023-03-23T05:31:44;6.10;;;3.35;;
70301;SDS011;57706;56.326;43.882;2023-03-23T05:34:11;4.80;;;3.03;;
70301;SDS011;57706;56.326;43.882;2023-03-23T05:36:46;5.78;;;3.30;;
70301;SDS011;57706;56.326;43.882;2023-03-23T05:39:29;5.45;;;3.28;;
70301;SDS011;57706;56.326;43.882;2023-03-23T05:42:14;4.22;;;2.92;;
70301;SDS011;57706;56.326;43.882;2023-03-23T05:45:13;5.90;;;3.30;;
70301;SDS011;57706;56.326;43.882;2023-03-23T05:47:40;5.18;;;3.63;;
70301;SDS011;57706;56.326;43.882;2023-03-23T05:50:11;5.20;;;3.22;;
70301;SDS011;57706;56.326;43.882;2023-03-23T05:52:38;5.97;;;3.65;;
70301;SDS011;57706;56.326;43.882;2023-03-23T05:55:07;5.30;;;3.15;;
70301;SDS011;57706;56.326;43.882;2023-03-23T05:57:37;5.03;;;3.40;;
70301;SDS011;57706;56.326;43.882;2023-03-23T06:00:26;5.70;;;3.42;;
70301;SDS011;57706;56.326;43.882;2023-03-23T06:03:02;9.25;;;3.85;;
70301;SDS011;57706;56.326;43.882;2023-03-23T06:05:35;6.13;;;3.28;;
70301;SDS011;57706;56.326;43.882;2023-03-23T06:08:02;5.85;;;3.80;;
70301;SDS011;57706;56.326;43.882;2023-03-23T06:10:28;4.30;;;2.88;;
70301;SDS011;57706;56.326;43.882;2023-03-23T06:13:00;7.00;;;3.40;;
70301;SDS011;57706;56.326;43.882;2023-03-23T06:15:34;6.35;;;3.83;;
70301;SDS011;57706;56.326;43.882;2023-03-23T06:18:09;8.80;;;3.60;;
70301;SDS011;57706;56.326;43.882;2023-03-23T06:20:41;9.02;;;3.70;;
70301;SDS011;57706;56.326;43.882;2023-03-23T06:23:38;6.05;;;3.63;;
70301;SDS011;57706;56.326;43.882;2023-03-23T06:26:05;5.80;;;3.85;;
70301;SDS011;57706;56.326;43.882;2023-03-23T06:28:33;8.68;;;3.60;;
70301;SDS011;57706;56.326;43.882;2023-03-23T06:31:00;8.68;;;3.90;;
70301;SDS011;57706;56.326;43.882;2023-03-23T06:33:27;5.60;;;3.45;;
70301;SDS011;57706;56.326;43.882;2023-03-23T06:36:15;9.90;;;3.83;;
70301;SDS011;57706;56.326;43.882;2023-03-23T06:38:49;8.55;;;3.78;;
70301;SDS011;57706;56.326;43.882;2023-03-23T06:41:20;6.82;;;3.88;;
70301;SDS011;57706;56.326;43.882;2023-03-23T06:43:46;10.10;;;4.05;;
70301;SDS011;57706;56.326;43.882;2023-03-23T06:46:16;8.77;;;4.75;;
70301;SDS011;57706;56.326;43.882;2023-03-23T06:48:52;7.50;;;4.40;;
70301;SDS011;57706;56.326;43.882;2023-03-23T06:51:24;3.83;;;2.70;;
70301;SDS011;57706;56.326;43.882;2023-03-23T06:53:52;6.00;;;4.00;;
70301;SDS011;57706;56.326;43.882;2023-03-23T06:56:18;6.22;;;3.40;;
70301;SDS011;57706;56.326;43.882;2023-03-23T06:58:45;9.40;;;3.58;;
70301;SDS011;57706;56.326;43.882;2023-03-23T07:01:11;6.07;;;3.83;;
70301;SDS011;57706;56.326;43.882;2023-03-23T07:03:43;6.47;;;3.70;;
70301;SDS011;57706;56.326;43.882;2023-03-23T07:06:10;7.20;;;3.83;;
70301;SDS011;57706;56.326;43.882;2023-03-23T07:08:45;5.97;;;3.17;;
70301;SDS011;57706;56.326;43.882;2023-03-23T07:11:16;6.13;;;3.60;;
70301;SDS011;57706;56.326;43.882;2023-03-23T07:13:42;6.38;;;3.88;;
70301;SDS011;57706;56.326;43.882;2023-03-23T07:16:08;7.78;;;3.60;;
70301;SDS011;57706;56.326;43.882;2023-03-23T07:18:36;6.88;;;3.90;;
70301;SDS011;57706;56.326;43.882;2023-03-23T07:21:03;11.65;;;3.95;;
70301;SDS011;57706;56.326;43.882;2023-03-23T07:23:31;5.90;;;3.53;;
70301;SDS011;57706;56.326;43.882;2023-03-23T07:26:01;8.73;;;3.65;;
70301;SDS011;57706;56.326;43.882;2023-03-23T07:28:37;6.60;;;3.58;;
70301;SDS011;57706;56.326;43.882;2023-03-23T07:31:31;6.90;;;3.72;;
70301;SDS011;57706;56.326;43.882;2023-03-23T07:33:58;7.57;;;3.65;;
70301;SDS011;57706;56.326;43.882;2023-03-23T07:36:33;5.80;;;3.40;;
70301;SDS011;57706;56.326;43.882;2023-03-23T07:39:04;7.65;;;3.97;;
70301;SDS011;57706;56.326;43.882;2023-03-23T07:41:33;6.50;;;3.75;;
70301;SDS011;57706;56.326;43.882;2023-03-23T07:44:07;9.38;;;3.63;;
70301;SDS011;57706;56.326;43.882;2023-03-23T07:46:35;10.57;;;4.40;;
70301;SDS011;57706;56.326;43.882;2023-03-23T07:49:27;5.65;;;3.55;;
70301;SDS011;57706;56.326;43.882;2023-03-23T07:52:04;6.88;;;3.05;;
70301;SDS011;57706;56.326;43.882;2023-03-23T07:54:30;5.57;;;3.50;;
70301;SDS011;57706;56.326;43.882;2023-03-23T07:57:03;4.50;;;3.20;;
70301;SDS011;57706;56.326;43.882;2023-03-23T07:59:33;8.90;;;3.58;;
70301;SDS011;57706;56.326;43.882;2023-03-23T08:01:59;5.20;;;3.15;;
70301;SDS011;57706;56.326;43.882;2023-03-23T08:04:30;4.10;;;2.80;;
70301;SDS011;57706;56.326;43.882;2023-03-23T08:07:34;6.07;;;3.17;;
70301;SDS011;57706;56.326;43.882;2023-03-23T08:10:17;5.28;;;3.33;;
70301;SDS011;57706;56.326;43.882;2023-03-23T08:13:02;6.32;;;3.30;;
70301;SDS011;57706;56.326;43.882;2023-03-23T08:15:40;6.57;;;3.65;;
70301;SDS011;57706;56.326;43.882;2023-03-23T08:18:25;7.38;;;3.58;;
70301;SDS011;57706;56.326;43.882;2023-03-23T08:20:55;7.00;;;3.72;;
70301;SDS011;57706;56.326;43.882;2023-03-23T08:23:44;6.25;;;3.40;;
70301;SDS011;57706;56.326;43.882;2023-03-23T08:26:33;5.90;;;3.58;;
70301;SDS011;57706;56.326;43.882;2023-03-23T08:29:17;8.15;;;3.47;;
70301;SDS011;57706;56.326;43.882;2023-03-23T08:31:49;6.20;;;3.50;;
70301;SDS011;57706;56.326;43.882;2023-03-23T08:34:29;8.07;;;3.78;;
70301;SDS011;57706;56.326;43.882;2023-03-23T08:37:25;4.28;;;3.63;;
70301;SDS011;57706;56.326;43.882;2023-03-23T08:40:00;5.63;;;3.70;;
70301;SDS011;57706;56.326;43.882;2023-03-23T08:42:38;9.13;;;4.10;;
70301;SDS011;57706;56.326;43.882;2023-03-23T08:45:31;4.63;;;3.22;;
70301;SDS011;57706;56.326;43.882;2023-03-23T08:48:15;6.32;;;3.78;;
70301;SDS011;57706;56.326;43.882;2023-03-23T08:51:20;5.88;;;3.67;;
70301;SDS011;57706;56.326;43.882;2023-03-23T08:57:01;5.38;;;3.80;;
70301;SDS011;57706;56.326;43.882;2023-03-23T08:59:42;3.60;;;2.83;;
70301;SDS011;57706;56.326;43.882;2023-03-23T09:02:29;3.78;;;2.95;;
70301;SDS011;57706;56.326;43.882;2023-03-23T09:05:16;3.10;;;2.80;;
70301;SDS011;57706;56.326;43.882;2023-03-23T09:08:03;5.93;;;3.22;;
70301;SDS011;57706;56.326;43.882;2023-03-23T09:10:29;4.78;;;3.38;;
70301;SDS011;57706;56.326;43.882;2023-03-23T09:12:57;7.72;;;3.95;;
70301;SDS011;57706;56.326;43.882;2023-03-23T09:15:24;4.72;;;3.10;;
70301;SDS011;57706;56.326;43.882;2023-03-23T09:17:51;6.90;;;3.58;;
70301;SDS011;57706;56.326;43.882;2023-03-23T09:20:19;7.95;;;3.75;;
70301;SDS011;57706;56.326;43.882;2023-03-23T09:22:48;4.63;;;3.72;;
70301;SDS011;57706;56.326;43.882;2023-03-23T09:25:17;6.65;;;3.95;;
70301;SDS011;57706;56.326;43.882;2023-03-23T09:27:46;5.40;;;3.47;;
70301;SDS011;57706;56.326;43.882;2023-03-23T09:30:17;4.05;;;3.25;;
70301;SDS011;57706;56.326;43.882;2023-03-23T09:32:44;4.88;;;4.22;;
70301;SDS011;57706;56.326;43.882;2023-03-23T09:35:11;6.65;;;3.75;;
70301;SDS011;57706;56.326;43.882;2023-03-23T09:37:39;6.38;;;3.38;;
70301;SDS011;57706;56.326;43.882;2023-03-23T09:40:06;6.32;;;3.78;;
70301;SDS011;57706;56.326;43.882;2023-03-23T09:42:43;3.95;;;3.38;;
70301;SDS011;57706;56.326;43.882;2023-03-23T09:50:35;3.65;;;3.13;;
70301;SDS011;57706;56.326;43.882;2023-03-23T09:53:08;7.95;;;3.53;;
70301;SDS011;57706;56.326;43.882;2023-03-23T09:55:46;4.80;;;3.20;;
70301;SDS011;57706;56.326;43.882;2023-03-23T10:00:58;5.07;;;3.15;;
70301;SDS011;57706;56.326;43.882;2023-03-23T10:03:31;4.82;;;3.45;;
70301;SDS011;57706;56.326;43.882;2023-03-23T10:06:02;5.75;;;4.00;;
70301;SDS011;57706;56.326;43.882;2023-03-23T10:08:30;4.07;;;3.28;;
70301;SDS011;57706;56.326;43.882;2023-03-23T10:11:02;7.22;;;3.40;;
70301;SDS011;57706;56.326;43.882;2023-03-23T10:13:33;3.90;;;2.92;;
70301;SDS011;57706;56.326;43.882;2023-03-23T10:16:10;3.92;;;3.30;;
70301;SDS011;57706;56.326;43.882;2023-03-23T10:18:47;5.07;;;3.45;;
70301;SDS011;57706;56.326;43.882;2023-03-23T10:21:20;4.57;;;4.10;;
70301;SDS011;57706;56.326;43.882;2023-03-23T10:23:51;3.40;;;3.10;;
70301;SDS011;57706;56.326;43.882;2023-03-23T10:31:33;6.55;;;4.03;;
70301;SDS011;57706;56.326;43.882;2023-03-23T10:34:04;8.73;;;3.70;;
70301;SDS011;57706;56.326;43.882;2023-03-23T10:36:40;4.68;;;3.75;;
70301;SDS011;57706;56.326;43.882;2023-03-23T10:39:21;4.15;;;3.40;;
70301;SDS011;57706;56.326;43.882;2023-03-23T10:41:51;5.40;;;3.85;;
70301;SDS011;57706;56.326;43.882;2023-03-23T10:44:19;8.32;;;6.40;;
70301;SDS011;57706;56.326;43.882;2023-03-23T10:49:34;7.75;;;4.75;;
70301;SDS011;57706;56.326;43.882;2023-03-23T10:52:44;6.35;;;4.15;;
70301;SDS011;57706;56.326;43.882;2023-03-23T10:54:55;5.90;;;4.55;;
70301;SDS011;57706;56.326;43.882;2023-03-23T10:57:29;7.43;;;4.93;;
70301;SDS011;57706;56.326;43.882;2023-03-23T11:00:01;6.90;;;4.55;;
70301;SDS011;57706;56.326;43.882;2023-03-23T11:02:44;6.90;;;4.38;;
70301;SDS011;57706;56.326;43.882;2023-03-23T11:05:19;11.10;;;5.50;;
70301;SDS011;57706;56.326;43.882;2023-03-23T11:07:48;6.70;;;5.35;;
70301;SDS011;57706;56.326;43.882;2023-03-23T11:10:53;6.43;;;5.32;;
70301;SDS011;57706;56.326;43.882;2023-03-23T11:13:14;8.70;;;5.07;;
70301;SDS011;57706;56.326;43.882;2023-03-23T11:15:42;7.63;;;4.97;;
70301;SDS011;57706;56.326;43.882;2023-03-23T11:18:12;6.70;;;5.30;;
70301;SDS011;57706;56.326;43.882;2023-03-23T11:20:44;7.68;;;5.20;;
70301;SDS011;57706;56.326;43.882;2023-03-23T11:25:58;8.30;;;5.15;;
70301;SDS011;57706;56.326;43.882;2023-03-23T11:28:34;12.52;;;5.43;;
70301;SDS011;57706;56.326;43.882;2023-03-23T11:31:04;7.88;;;5.55;;
70301;SDS011;57706;56.326;43.882;2023-03-23T11:33:39;10.48;;;5.43;;
70301;SDS011;57706;56.326;43.882;2023-03-23T11:36:36;10.48;;;6.78;;
70301;SDS011;57706;56.326;43.882;2023-03-23T11:39:22;7.85;;;5.90;;
70301;SDS011;57706;56.326;43.882;2023-03-23T11:41:49;9.00;;;5.93;;
70301;SDS011;57706;56.326;43.882;2023-03-23T11:44:15;9.43;;;6.18;;
70301;SDS011;57706;56.326;43.882;2023-03-23T11:49:32;9.18;;;5.72;;
70301;SDS011;57706;56.326;43.882;2023-03-23T11:55:09;7.80;;;6.07;;
70301;SDS011;57706;56.326;43.882;2023-03-23T11:57:41;8.65;;;5.63;;
70301;SDS011;57706;56.326;43.882;2023-03-23T12:00:14;8.73;;;5.78;;
70301;SDS011;57706;56.326;43.882;2023-03-23T12:02:56;8.25;;;6.25;;
70301;SDS011;57706;56.326;43.882;2023-03-23T12:05:49;9.93;;;6.70;;
70301;SDS011;57706;56.326;43.882;2023-03-23T12:11:30;9.50;;;7.30;;
70301;SDS011;57706;56.326;43.882;2023-03-23T12:28:36;10.68;;;6.38;;
70301;SDS011;57706;56.326;43.882;2023-03-23T12:31:15;8.02;;;6.28;;
70301;SDS011;57706;56.326;43.882;2023-03-23T12:37:19;10.40;;;7.55;;
70301;SDS011;57706;56.326;43.882;2023-03-23T12:42:16;11.52;;;7.47;;
70301;SDS011;57706;56.326;43.882;2023-03-23T12:44:54;11.68;;;8.10;;
70301;SDS011;57706;56.326;43.882;2023-03-23T12:47:50;12.15;;;8.80;;
70301;SDS011;57706;56.326;43.882;2023-03-23T12:58:12;14.68;;;9.65;;
70301;SDS011;57706;56.326;43.882;2023-03-23T13:06:44;17.77;;;11.55;;
70301;SDS011;57706;56.326;43.882;2023-03-23T13:08:53;15.57;;;11.25;;
70301;SDS011;57706;56.326;43.882;2023-03-23T13:11:29;17.42;;;10.93;;
70301;SDS011;57706;56.326;43.882;2023-03-23T13:23:23;21.48;;;12.75;;
70301;SDS011;57706;56.326;43.882;2023-03-23T13:26:13;24.17;;;13.23;;
70301;SDS011;57706;56.326;43.882;2023-03-23T13:31:16;20.23;;;13.15;;
70301;SDS011;57706;56.326;43.882;2023-03-23T13:33:51;21.48;;;14.20;;
70301;SDS011;57706;56.326;43.882;2023-03-23T13:36:25;18.80;;;12.55;;
70301;SDS011;57706;56.326;43.882;2023-03-23T13:38:55;24.38;;;14.80;;
70301;SDS011;57706;56.326;43.882;2023-03-23T13:41:22;22.60;;;13.25;;
70301;SDS011;57706;56.326;43.882;2023-03-23T13:43:49;20.88;;;13.70;;
70301;SDS011;57706;56.326;43.882;2023-03-23T13:48:47;20.48;;;14.43;;
70301;SDS011;57706;56.326;43.882;2023-03-23T13:51:31;21.23;;;14.32;;
70301;SDS011;57706;56.326;43.882;2023-03-23T13:59:13;20.60;;;12.77;;
70301;SDS011;57706;56.326;43.882;2023-03-23T14:01:54;23.27;;;14.23;;
70301;SDS011;57706;56.326;43.882;2023-03-23T14:04:22;24.38;;;13.93;;
70301;SDS011;57706;56.326;43.882;2023-03-23T14:06:56;20.38;;;13.10;;
70301;SDS011;57706;56.326;43.882;2023-03-23T14:09:37;21.58;;;13.65;;
70301;SDS011;57706;56.326;43.882;2023-03-23T14:12:05;23.67;;;14.60;;
70301;SDS011;57706;56.326;43.882;2023-03-23T14:17:12;20.08;;;13.75;;
70301;SDS011;57706;56.326;43.882;2023-03-23T14:19:40;24.38;;;13.82;;
70301;SDS011;57706;56.326;43.882;2023-03-23T14:22:19;21.30;;;12.55;;
70301;SDS011;57706;56.326;43.882;2023-03-23T14:24:50;20.80;;;13.57;;
70301;SDS011;57706;56.326;43.882;2023-03-23T14:27:19;19.98;;;12.55;;
70301;SDS011;57706;56.326;43.882;2023-03-23T14:29:57;25.30;;;13.48;;
70301;SDS011;57706;56.326;43.882;2023-03-23T14:32:23;22.50;;;13.32;;
70301;SDS011;57706;56.326;43.882;2023-03-23T14:34:51;26.70;;;14.25;;
70301;SDS011;57706;56.326;43.882;2023-03-23T14:37:18;22.67;;;13.13;;
70301;SDS011;57706;56.326;43.882;2023-03-23T14:39:46;21.75;;;13.00;;
70301;SDS011;57706;56.326;43.882;2023-03-23T14:42:15;22.42;;;14.27;;
70301;SDS011;57706;56.326;43.882;2023-03-23T14:44:45;21.33;;;13.05;;
70301;SDS011;57706;56.326;43.882;2023-03-23T14:47:16;23.77;;;14.05;;
70301;SDS011;57706;56.326;43.882;2023-03-23T14:49:57;27.23;;;13.40;;
70301;SDS011;57706;56.326;43.882;2023-03-23T14:52:25;26.75;;;13.88;;
70301;SDS011;57706;56.326;43.882;2023-03-23T14:54:53;21.48;;;12.82;;
70301;SDS011;57706;56.326;43.882;2023-03-23T14:59:55;24.17;;;13.48;;
70301;SDS011;57706;56.326;43.882;2023-03-23T15:02:36;21.30;;;13.48;;
70301;SDS011;57706;56.326;43.882;2023-03-23T15:07:51;20.33;;;12.05;;
70301;SDS011;57706;56.326;43.882;2023-03-23T15:10:22;21.95;;;13.05;;
70301;SDS011;57706;56.326;43.882;2023-03-23T15:12:49;23.10;;;12.32;;
70301;SDS011;57706;56.326;43.882;2023-03-23T15:15:31;20.60;;;12.25;;
70301;SDS011;57706;56.326;43.882;2023-03-23T15:17:58;21.40;;;12.25;;
70301;SDS011;57706;56.326;43.882;2023-03-23T15:22:55;21.33;;;11.85;;
70301;SDS011;57706;56.326;43.882;2023-03-23T15:25:40;19.17;;;11.68;;
70301;SDS011;57706;56.326;43.882;2023-03-23T15:28:19;16.73;;;9.63;;
70301;SDS011;57706;56.326;43.882;2023-03-23T15:30:48;22.27;;;11.88;;
70301;SDS011;57706;56.326;43.882;2023-03-23T15:33:17;19.25;;;10.98;;
70301;SDS011;57706;56.326;43.882;2023-03-23T15:35:47;19.70;;;11.77;;
70301;SDS011;57706;56.326;43.882;2023-03-23T15:38:18;20.92;;;12.07;;
70301;SDS011;57706;56.326;43.882;2023-03-23T15:40:51;20.88;;;12.30;;
70301;SDS011;57706;56.326;43.882;2023-03-23T15:45:53;21.27;;;11.13;;
70301;SDS011;57706;56.326;43.882;2023-03-23T15:48:32;19.73;;;11.52;;
70301;SDS011;57706;56.326;43.882;2023-03-23T15:51:01;20.60;;;11.88;;
70301;SDS011;57706;56.326;43.882;2023-03-23T15:53:33;22.08;;;12.70;;
70301;SDS011;57706;56.326;43.882;2023-03-23T15:56:06;23.10;;;13.40;;
70301;SDS011;57706;56.326;43.882;2023-03-23T15:58:35;19.95;;;11.65;;
70301;SDS011;57706;56.326;43.882;2023-03-23T16:01:03;18.00;;;10.18;;
70301;SDS011;57706;56.326;43.882;2023-03-23T16:03:58;21.27;;;11.48;;
70301;SDS011;57706;56.326;43.882;2023-03-23T16:06:25;16.35;;;10.40;;
70301;SDS011;57706;56.326;43.882;2023-03-23T16:08:53;18.52;;;11.07;;
70301;SDS011;57706;56.326;43.882;2023-03-23T16:11:19;21.13;;;12.43;;
70301;SDS011;57706;56.326;43.882;2023-03-23T16:13:45;18.25;;;11.05;;
70301;SDS011;57706;56.326;43.882;2023-03-23T16:16:13;17.88;;;10.00;;
70301;SDS011;57706;56.326;43.882;2023-03-23T16:18:43;20.33;;;10.43;;
70301;SDS011;57706;56.326;43.882;2023-03-23T16:21:09;23.15;;;10.82;;
70301;SDS011;57706;56.326;43.882;2023-03-23T16:23:35;18.90;;;9.70;;
70301;SDS011;57706;56.326;43.882;2023-03-23T16:26:01;18.23;;;10.93;;
70301;SDS011;57706;56.326;43.882;2023-03-23T16:28:27;20.60;;;11.88;;
70301;SDS011;57706;56.326;43.882;2023-03-23T16:30:53;17.80;;;9.45;;
70301;SDS011;57706;56.326;43.882;2023-03-23T16:33:20;18.88;;;10.93;;
70301;SDS011;57706;56.326;43.882;2023-03-23T16:35:46;18.77;;;10.55;;
70301;SDS011;57706;56.326;43.882;2023-03-23T16:38:13;18.70;;;10.60;;
70301;SDS011;57706;56.326;43.882;2023-03-23T16:40:43;23.30;;;10.90;;
70301;SDS011;57706;56.326;43.882;2023-03-23T16:43:11;22.88;;;11.05;;
70301;SDS011;57706;56.326;43.882;2023-03-23T16:45:38;19.30;;;10.88;;
70301;SDS011;57706;56.326;43.882;2023-03-23T16:48:07;19.85;;;12.05;;
70301;SDS011;57706;56.326;43.882;2023-03-23T16:50:34;21.08;;;11.93;;
70301;SDS011;57706;56.326;43.882;2023-03-23T16:53:01;19.33;;;11.32;;
70301;SDS011;57706;56.326;43.882;2023-03-23T16:55:27;22.77;;;11.65;;
70301;SDS011;57706;56.326;43.882;2023-03-23T16:57:56;19.95;;;12.27;;
70301;SDS011;57706;56.326;43.882;2023-03-23T17:00:23;21.35;;;11.65;;